Tiempo atmosférico en la estación meteorológica de Fraga, Huesca (170 m.)



Fecha
DESCASC
Temp. máxima en grados centígrados (hora)
DESCASC
Temp. mínima en grados centígrados (hora)
DESCASC
Temp. media en grados centígrados
DESCASC
Racha de viento máxima en m/sg (hora)
DESCASC
Velocidad máxima media en intervalos de 10 minutos(hora)
DESCASC
Precipitaciones diarias en mm
DESCASC
Precipitaciones de 00:00 a 06:00 en mm
DESCASC
Precipitaciones de 06:00 a 12:00 en mm
DESCASC
Precipitaciones de 12:00 a 18:00 en mm
DESCASC
Precipitaciones de 18:00 a 24:00 en mm
DESCASC
02-08-2020 34.4 (15:40) 20.8 (06:50) 27.6 11.39 (21:00) 8.61 (20:50) 0 0 0 0 0
01-08-2020 38.9 (16:40) 22 (07:30) 30.5 7.78 (23:30) 5.28 (19:10) 0 0 0 0 0
31-07-2020 41.1 (17:00) 21.6 (07:10) 31.3 8.61 (19:20) 5.56 (22:00) 0 0 0 0 0
30-07-2020 38.5 (15:10) 21.8 (00:00) 30.1 11.67 (17:40) 7.5 (17:40) 0 0 0 0 0
29-07-2020 35.7 (16:20) 23.1 (00:00) 29.4 12.5 (17:30) 7.22 (18:00) 0 0 0 0 0
28-07-2020 37.3 (17:10) 23.9 (00:00) 30.6 11.67 (18:00) 6.94 (18:00) 0.2 0.2 0 0 0
27-07-2020 37.7 (16:20) 22.2 (00:00) 30 10.83 (19:30) 6.67 (18:00) 0 0 0 0 0
26-07-2020 36.4 (18:20) 20.5 (00:00) 28.5 9.72 (20:50) 6.11 (19:10) 0 0 0 0 0
25-07-2020 35.6 (18:50) 19.7 (00:00) 27.6 9.17 (20:10) 5.28 (23:00) 0 0 0 0 0
24-07-2020 35.4 (18:20) 21.9 (00:00) 28.7 10.56 (02:20) 6.67 (02:20) 0 0 0 0 0
23-07-2020 37.6 (17:20) 18.2 (00:00) 27.9 8.61 (21:50) 5.28 (21:50) 0 0 0 0 0
22-07-2020 34.2 (16:50) 20.5 (00:00) 27.4 10.56 (17:10) 6.11 (17:00) 0 0 0 0 0
21-07-2020 35.6 (16:20) 20.3 (00:00) 27.9 12.5 (19:50) 8.06 (18:30) 0 0 0 0 0
20-07-2020 33.5 (16:10) 20.7 (00:00) 27.1 11.67 (19:00) 6.39 (18:40) 0.2 0 0.2 0 0
19-07-2020 34.8 (15:20) 20.6 (00:00) 27.7 11.39 (20:40) 6.67 (20:10) 0 0 0 0 0
18-07-2020 34.2 (16:40) 17.9 (00:00) 26.1 8.89 (23:40) 5.28 (23:30) 0 0 0 0 0
17-07-2020 32.7 (19:20) 16.8 (00:00) 24.8 7.5 (20:10) 4.44 (20:10) 0 0 0 0 0
16-07-2020 32.4 (18:30) 16.6 (00:00) 24.5 9.44 (17:10) 3.89 (17:10) 0 0 0 0 0
15-07-2020 31 (18:10) 16.8 (00:00) 23.9 12.78 (18:20) 8.06 (18:30) 0 0 0 0 0
14-07-2020 30.4 (16:40) 17.3 (00:00) 23.8 7.22 (03:30) 3.61 (03:30) 0 0 0 0 0
13-07-2020 34.6 (17:20) 20.1 (00:00) 27.3 10.56 (19:20) 5.83 (19:20) 0 0 0 0 0
12-07-2020 31.2 (16:00) 20.6 (07:00) 25.9 8.89 (00:10) 5.83 (00:20) 0 0 0 0 0
11-07-2020 33.9 (18:30) 19.1 (06:40) 26.5 10.56 (20:00) 6.39 (19:40) 0 0 0 0 0
10-07-2020 34 (15:50) 20.8 (00:00) 27.4 10 (16:00) 5.83 (16:00) 0 0 0 0 0
09-07-2020 35.3 (18:00) 22.4 (06:50) 28.8 8.89 (20:00) 5.28 (22:40) 0 0 0 0 0
08-07-2020 33.6 (15:50) 19.3 (06:30) 26.4 11.11 (20:20) 6.94 (19:40) 0 0 0 0 0
07-07-2020 32.2 (18:20) 15.4 (06:10) 23.8 8.89 (22:30) 5 (22:30) 0 0 0 0 0

Gráficas

Temp. máximas Temp. mínimas Temp. medias Precipitaciones Rachas de viento máximas Velocidades máximas media en intervalos de 10 minutos

Datos horarios

Fecha y hora oficial Temperatura (ºC) Velocidad del viento (km/h) Dirección del viento Racha (km/h) Dirección de racha Precipitación (mm) Presión (hPa) Tendencia (hPa) Humedad (%)
2020-08-05 23:00:00 26.4 17 Sudeste 30 Sudeste 0 -- -- 64
2020-08-05 22:00:00 27.7 12 Sudeste 30 Sudeste 0 -- -- 60
2020-08-05 21:00:00 29.7 17 Sudeste 30 Sur 0 -- -- 54
2020-08-05 20:00:00 33 8 Este 13 Nordeste 0 -- -- 28
2020-08-05 19:00:00 34.1 9 Nordeste 17 Nordeste 0 -- -- 27
2020-08-05 18:00:00 34 10 Nordeste 19 Norte 0 -- -- 27
2020-08-05 17:00:00 33.8 5 Norte 20 Nordeste 0 -- -- 28
2020-08-05 16:00:00 32.3 5 Este 22 Nordeste 0 -- -- 31
2020-08-05 15:00:00 31.9 12 Nordeste 36 Este 0 -- -- 33
2020-08-05 14:00:00 30.3 9 Nordeste 19 Nordeste 0 -- -- 36
2020-08-05 13:00:00 28.5 8 Nordeste 14 Nordeste 0 -- -- 38
2020-08-05 12:00:00 26 4 Sudoeste 13 Nordeste 0 -- -- 44
2020-08-05 11:00:00 23.5 3 Oeste 12 Noroeste 0 -- -- 52
2020-08-05 10:00:00 21.4 4 Noroeste 9 Noroeste 0 -- -- 57
2020-08-05 09:00:00 18.8 2 Noroeste 5 Norte 0 -- -- 63
2020-08-05 08:00:00 16.6 0 Calma 3 Noroeste 0 -- -- 69
2020-08-05 07:00:00 15.2 0 Calma 5 Sudoeste 0 -- -- 74
2020-08-05 06:00:00 16.8 0 Calma 8 Noroeste 0 -- -- 66
2020-08-05 05:00:00 18.4 2 Noroeste 8 Noroeste 0 -- -- 60
2020-08-05 04:00:00 19.9 3 Oeste 15 Sudoeste 0 -- -- 56
2020-08-05 03:00:00 21.6 8 Sudoeste 19 Sudoeste 0 -- -- 51
2020-08-05 02:00:00 22.8 7 Sudoeste 14 Oeste 0 -- -- 45
2020-08-05 01:00:00 23.5 5 Sudoeste 15 Sudoeste 0 -- -- 42
2020-08-05 00:00:00 25.1 7 Sudoeste 17 Sudoeste 0 -- -- 38
2020-08-04 23:00:00 26.5 11 Sudoeste 24 Sudoeste 0 -- -- 35
2020-08-04 22:00:00 27.5 11 Sur 26 Sudoeste 0 -- -- 34
2020-08-04 21:00:00 29.6 9 Sudoeste 22 Oeste 0 -- -- 31
2020-08-04 20:00:00 31.5 14 Oeste 26 Oeste 0 -- -- 29
2020-08-04 19:00:00 32 13 Oeste 23 Sudoeste 0 -- -- 28
2020-08-04 18:00:00 32.5 13 Oeste 25 Oeste 0 -- -- 29
2020-08-04 17:00:00 32.1 13 Oeste 27 Oeste 0 -- -- 29
2020-08-04 16:00:00 31.4 14 Oeste 32 Oeste 0 -- -- 32
2020-08-04 15:00:00 30.5 11 Noroeste 24 Noroeste 0 -- -- 32
2020-08-04 14:00:00 29.2 10 Oeste 22 Oeste 0 -- -- 34
2020-08-04 13:00:00 26.8 6 Sudoeste 17 Oeste 0 -- -- 42
2020-08-04 12:00:00 25.1 5 Sudeste 13 Noroeste 0 -- -- 46
2020-08-04 11:00:00 23 6 Noroeste 16 Noroeste 0 -- -- 53
2020-08-04 10:00:00 21.1 9 Noroeste 20 Oeste 0 -- -- 58
2020-08-04 09:00:00 19.4 6 Oeste 10 Oeste 0 -- -- 62
2020-08-04 08:00:00 17.7 6 Oeste 13 Oeste 0 -- -- 67
2020-08-04 07:00:00 17 5 Sudoeste 11 Sudoeste 0 -- -- 69
2020-08-04 06:00:00 17.2 4 Oeste 12 Sudoeste 0 -- -- 67
2020-08-04 05:00:00 17.8 5 Sudoeste 13 Sudoeste 0 -- -- 65
2020-08-04 04:00:00 19 7 Sudoeste 24 Sudoeste 0 -- -- 61
2020-08-04 03:00:00 19.7 10 Sudoeste 23 Sudoeste 0 -- -- 58
2020-08-04 02:00:00 20.7 14 Sudoeste 31 Sudoeste 0 -- -- 55
2020-08-04 01:00:00 21.8 10 Sudoeste 24 Sudoeste 0 -- -- 51
2020-08-04 00:00:00 23.2 6 Sudoeste 18 Sudoeste 0 -- -- 46
2020-08-03 23:00:00 24.6 9 Sudoeste 22 Oeste 0 -- -- 42
2020-08-03 22:00:00 26.4 10 Oeste 37 Noroeste 0 -- -- 37
2020-08-03 21:00:00 28.2 19 Noroeste 30 Noroeste 0 -- -- 34
2020-08-03 20:00:00 30.9 14 Oeste 32 Oeste 0 -- -- 30
2020-08-03 19:00:00 31.6 19 Noroeste 36 Noroeste 0 -- -- 28
2020-08-03 18:00:00 32.6 18 Oeste 39 Noroeste 0 -- -- 27
2020-08-03 17:00:00 31.9 14 Oeste 34 Oeste 0 -- -- 28
2020-08-03 16:00:00 31.9 11 Oeste 34 Oeste 0 -- -- 28
2020-08-03 15:00:00 29.9 13 Noroeste 25 Noroeste 0 -- -- 32
2020-08-03 14:00:00 28.8 19 Oeste 36 Oeste 0 -- -- 35
2020-08-03 13:00:00 27.7 12 Noroeste 37 Sudoeste 0 -- -- 38
2020-08-03 12:00:00 26.1 12 Oeste 26 Oeste 0 -- -- 41
2020-08-03 11:00:00 24 15 Oeste 31 Oeste 0 -- -- 47
2020-08-03 10:00:00 21.9 12 Oeste 26 Sudoeste 0 -- -- 53
2020-08-03 09:00:00 20.4 11 Sudoeste 22 Sudoeste 0 -- -- 57
2020-08-03 08:00:00 19.1 12 Sudoeste 24 Oeste 0 -- -- 63
2020-08-03 07:00:00 19.4 14 Oeste 24 Oeste 0 -- -- 62
2020-08-03 06:00:00 20.2 10 Oeste 17 Sudoeste 0 -- -- 59
2020-08-03 05:00:00 20.4 6 Oeste 21 Sudoeste 0 -- -- 56
2020-08-03 04:00:00 20.7 9 Sudoeste 19 Sudoeste 0 -- -- 54
2020-08-03 03:00:00 21 5 Sudoeste 17 Sudoeste 0 -- -- 53
2020-08-03 02:00:00 21.3 5 Oeste 24 Oeste 0 -- -- 54
2020-08-03 01:00:00 22.2 8 Oeste 15 Sudoeste 0 -- -- 51
2020-08-03 00:00:00 23.2 6 Oeste 24 Oeste 0 -- -- 47
2020-08-02 23:00:00 24.5 18 Oeste 34 Oeste 0 -- -- 43
2020-08-02 22:00:00 26 10 Oeste 36 Oeste 0 -- -- 42
2020-08-02 21:00:00 27.7 29 Oeste 41 Oeste 0 -- -- 40
2020-08-02 20:00:00 29.6 17 Noroeste 32 Noroeste 0 -- -- 39
2020-08-02 19:00:00 31.4 27 Noroeste 38 Oeste 0 -- -- 37
2020-08-02 18:00:00 33.3 21 Noroeste 30 Noroeste 0 -- -- 34
2020-08-02 17:00:00 33.5 14 Noroeste 27 Sudoeste 0 -- -- 36
2020-08-02 16:00:00 34.4 14 Oeste 26 Oeste 0 -- -- 33
2020-08-02 15:00:00 32.9 13 Sudoeste 26 Sudoeste 0 -- -- 36
2020-08-02 14:00:00 31.7 11 Oeste 23 Oeste 0 -- -- 39
2020-08-02 13:00:00 30.1 10 Oeste 22 Oeste 0 -- -- 43
2020-08-02 12:00:00 28.1 10 Oeste 24 Oeste 0 -- -- 47
2020-08-02 11:00:00 26.4 12 Oeste 26 Oeste 0 -- -- 51
2020-08-02 10:00:00 24.4 6 Oeste 18 Oeste 0 -- -- 59
2020-08-02 09:00:00 22.7 8 Sudoeste 16 Sudoeste 0 -- -- 65
2020-08-02 08:00:00 21.2 8 Sudoeste 17 Sudoeste 0 -- -- 71
2020-08-02 07:00:00 20.8 7 Sudoeste 15 Sudoeste 0 -- -- 72
2020-08-02 06:00:00 21.1 6 Sur 14 Sudoeste 0 -- -- 71
2020-08-02 05:00:00 21.6 9 Sudoeste 24 Oeste 0 -- -- 69
2020-08-02 04:00:00 22.1 12 Sudoeste 26 Sudoeste 0 -- -- 67
2020-08-02 03:00:00 22.9 9 Sudoeste 22 Sudoeste 0 -- -- 63
2020-08-02 02:00:00 23.9 8 Sudoeste 20 Sudoeste 0 -- -- 57
2020-08-02 01:00:00 25 8 Oeste 25 Sudoeste 0 -- -- 53
2020-08-02 00:00:00 26.4 10 Oeste 28 Sudoeste 0 -- -- 49
2020-08-01 23:00:00 28 12 Sudoeste 26 Oeste 0 -- -- 47
2020-08-01 22:00:00 31 12 Sudoeste 21 Sudoeste 0 -- -- 43
2020-08-01 21:00:00 34.4 8 Noroeste 17 Noroeste 0 -- -- 38
2020-08-01 20:00:00 36.1 15 Noroeste 28 Noroeste 0 -- -- 33
2020-08-01 19:00:00 37.4 16 Noroeste 26 Noroeste 0 -- -- 29
2020-08-01 18:00:00 37.6 12 Noroeste 26 Noroeste 0 -- -- 32
2020-08-01 17:00:00 38.2 13 Noroeste 27 Noroeste 0 -- -- 31
2020-08-01 16:00:00 38 8 Noroeste 19 Oeste 0 -- -- 30
2020-08-01 15:00:00 36.6 7 Sudoeste 21 Sudeste 0 -- -- 35
2020-08-01 14:00:00 35.3 7 Oeste 17 Sudoeste 0 -- -- 37
2020-08-01 13:00:00 33.2 6 Sur 15 Sur 0 -- -- 40
2020-08-01 12:00:00 31.5 8 Sur 22 Sudoeste 0 -- -- 45
2020-08-01 11:00:00 29.6 6 Sur 12 Sur 0 -- -- 51
2020-08-01 10:00:00 27.1 3 Sudeste 8 Sudoeste 0 -- -- 52
2020-08-01 09:00:00 24 2 Sudoeste 8 Noroeste 0 -- -- 66
2020-08-01 08:00:00 22.2 5 Oeste 8 Noroeste 0 -- -- 72
2020-08-01 07:00:00 22.4 3 Noroeste 11 Este 0 -- -- 67
2020-08-01 06:00:00 23.8 3 Nordeste 12 Nordeste 0 -- -- 58
2020-08-01 05:00:00 24.7 2 Sudoeste 10 Este 0 -- -- 58
2020-08-01 04:00:00 25.3 3 Oeste 7 Este 0 -- -- 57
2020-08-01 03:00:00 27.8 5 Sudeste 16 Sudeste 0 -- -- 45
2020-08-01 02:00:00 27.9 10 Este 23 Este 0 -- -- 50
2020-08-01 01:00:00 28.3 12 Este 26 Sudeste 0 -- -- 50
2020-08-01 00:00:00 29.4 15 Sudeste 27 Sudeste 0 -- -- 47
2020-07-31 23:00:00 30.5 12 Sudeste 28 Sudeste 0 -- -- 45
2020-07-31 22:00:00 32 20 Sudeste 31 Sudeste 0 -- -- 43
2020-07-31 21:00:00 33.8 16 Sudeste 28 Sur 0 -- -- 38
2020-07-31 20:00:00 35.6 16 Sudeste 31 Sudeste 0 -- -- 34
2020-07-31 19:00:00 37.4 18 Sudeste 29 Sudeste 0 -- -- 31
2020-07-31 18:00:00 40.2 12 Este 27 Nordeste 0 -- -- 27
2020-07-31 17:00:00 41.1 13 Nordeste 24 Nordeste 0 -- -- 23
2020-07-31 16:00:00 40.7 9 Nordeste 21 Nordeste 0 -- -- 24
2020-07-31 15:00:00 38.8 5 Sudeste 16 Este 0 -- -- 26
2020-07-31 14:00:00 37.1 8 Nordeste 15 Nordeste 0 -- -- 29
2020-07-31 13:00:00 35.4 8 Sudeste 18 Sudeste 0 -- -- 31
2020-07-31 12:00:00 33.6 5 Sudeste 13 Nordeste 0 -- -- 34
2020-07-31 11:00:00 30.3 4 Noroeste 10 Sur 0 -- -- 43
2020-07-31 10:00:00 26.2 4 Oeste 9 Oeste 0 -- -- 52
2020-07-31 09:00:00 23.2 5 Noroeste 9 Noroeste 0 -- -- 59
2020-07-31 08:00:00 21.9 2 Norte 5 Sur 0 -- -- 64
2020-07-31 07:00:00 21.7 5 Sudoeste 9 Sudoeste 0 -- -- 63
2020-07-31 06:00:00 22.4 4 Noroeste 13 Sudeste 0 -- -- 60
2020-07-31 05:00:00 23.2 3 Oeste 14 Este 0 -- -- 58
2020-07-31 04:00:00 24.6 4 Sudeste 13 Este 0 -- -- 54
2020-07-31 03:00:00 25.6 6 Sudoeste 19 Nordeste 0 -- -- 49
2020-07-31 02:00:00 26.8 3 Sudeste 18 Nordeste 0 -- -- 46
2020-07-31 01:00:00 28.2 15 Nordeste 20 Nordeste 0 -- -- 42
2020-07-31 00:00:00 29.5 8 Este 33 Sudeste 0 -- -- 40
2020-07-30 23:00:00 30.2 15 Sudeste 30 Sudeste 0 -- -- 38
2020-07-30 22:00:00 31 9 Sudeste 19 Sudeste 0 -- -- 36
2020-07-30 21:00:00 32.1 10 Sudeste 26 Sudeste 0 -- -- 36
2020-07-30 20:00:00 33.4 14 Sudeste 27 Sudeste 0 -- -- 32
2020-07-30 19:00:00 34.8 14 Sudeste 39 Sur 0 -- -- 30
2020-07-30 18:00:00 36.2 20 Sudeste 42 Sudeste 0 -- -- 26
2020-07-30 17:00:00 37.8 25 Sudeste 41 Sudeste 0 -- -- 25
2020-07-30 16:00:00 38.2 19 Sudeste 34 Sudeste 0 -- -- 24
2020-07-30 15:00:00 38.2 14 Este 27 Este 0 -- -- 26
2020-07-30 14:00:00 36.6 8 Este 21 Sudeste 0 -- -- 28
2020-07-30 13:00:00 35.2 6 Sur 15 Sudeste 0 -- -- 31
2020-07-30 12:00:00 33 6 Este 13 Este 0 -- -- 36
2020-07-30 11:00:00 30.6 6 Nordeste 12 Nordeste 0 -- -- 43
2020-07-30 10:00:00 27.5 6 Nordeste 10 Nordeste 0 -- -- 53
2020-07-30 09:00:00 24.2 3 Sudoeste 10 Este 0 -- -- 65
2020-07-30 08:00:00 22.5 3 Nordeste 10 Este 0 -- -- 69
2020-07-30 07:00:00 22.1 0 Calma 14 Este 0 -- -- 71
2020-07-30 06:00:00 23 9 Este 15 Este 0 -- -- 66
2020-07-30 05:00:00 23.5 9 Este 15 Este 0 -- -- 66
2020-07-30 04:00:00 24 3 Nordeste 15 Este 0 -- -- 66
2020-07-30 03:00:00 24.9 9 Este 15 Sudeste 0 -- -- 65
2020-07-30 02:00:00 25.8 4 Sudeste 24 Sudeste 0 -- -- 58
2020-07-30 01:00:00 26.4 12 Sudeste 22 Sudeste 0 -- -- 57
2020-07-30 00:00:00 27.2 10 Sudeste 18 Este 0 -- -- 53
2020-07-29 23:00:00 27.9 3 Sudeste 14 Sudeste 0 -- -- 53
2020-07-29 22:00:00 28.9 14 Sudeste 26 Sudeste 0 -- -- 50
2020-07-29 21:00:00 30.4 15 Sudeste 32 Sur 0 -- -- 46
2020-07-29 20:00:00 32.4 18 Sudeste 36 Sudeste 0 -- -- 39
2020-07-29 19:00:00 33.8 22 Sudeste 36 Sudeste 0 -- -- 35
2020-07-29 18:00:00 34.4 26 Sudeste 45 Sudeste 0 -- -- 32
2020-07-29 17:00:00 35.4 20 Sur 33 Sur 0 -- -- 33
2020-07-29 16:00:00 35.3 19 Sur 33 Sur 0 -- -- 34
2020-07-29 15:00:00 34.4 6 Sudeste 26 Este 0 -- -- 39
2020-07-29 14:00:00 33.7 9 Este 21 Nordeste 0 -- -- 40
2020-07-29 13:00:00 31.3 8 Sudeste 17 Sudeste 0 -- -- 45
2020-07-29 12:00:00 29.6 7 Oeste 17 Oeste 0 -- -- 51
2020-07-29 11:00:00 27.2 6 Sur 18 Sur 0 -- -- 57
2020-07-29 10:00:00 25.3 2 Norte 6 Noroeste 0 -- -- 64
2020-07-29 09:00:00 24.6 4 Sur 9 Sur 0 -- -- 66
2020-07-29 08:00:00 23.6 2 Nordeste 5 Este 0 -- -- 68
2020-07-29 07:00:00 23.5 3 Sur 12 Este 0 -- -- 68
2020-07-29 06:00:00 24.3 7 Sudeste 18 Sudeste 0 -- -- 65
2020-07-29 05:00:00 24.6 12 Sudeste 19 Sudeste 0 -- -- 65
2020-07-29 04:00:00 25 8 Sudeste 26 Sudeste 0 -- -- 62
2020-07-29 03:00:00 25.3 15 Sudeste 24 Sudeste 0 -- -- 59
2020-07-29 02:00:00 25.4 13 Sudeste 22 Sudeste 0 -- -- 62
2020-07-29 01:00:00 26.4 13 Sudeste 25 Sur 0 -- -- 62
2020-07-29 00:00:00 28 15 Sudeste 26 Sudeste 0 -- -- 52
2020-07-28 23:00:00 28.9 10 Sudeste 23 Sudeste 0 -- -- 42
2020-07-28 22:00:00 30.2 13 Sudeste 27 Sudeste 0 -- -- 38
2020-07-28 21:00:00 31.7 14 Sudeste 36 Sudeste 0 -- -- 39
2020-07-28 20:00:00 33.7 17 Sudeste 42 Sudeste 0 -- -- 31
2020-07-28 19:00:00 35.5 20 Sudeste 39 Sudeste 0 -- -- 28
2020-07-28 18:00:00 36.4 25 Sudeste 42 Sur 0 -- -- 25
2020-07-28 17:00:00 36.9 19 Sudeste 33 Sur 0 -- -- 27
2020-07-28 16:00:00 36.7 14 Sur 29 Sudeste 0 -- -- 28
2020-07-28 15:00:00 35.6 12 Sudeste 28 Sur 0 -- -- 34
2020-07-28 14:00:00 34.1 12 Sudeste 27 Sudeste 0 -- -- 39
2020-07-28 13:00:00 32.6 13 Sudeste 26 Sudeste 0 -- -- 44
2020-07-28 12:00:00 30.6 11 Sudeste 21 Sudeste 0 -- -- 53
2020-07-28 11:00:00 29.5 8 Este 17 Nordeste 0 -- -- 53
2020-07-28 10:00:00 28.4 12 Nordeste 18 Nordeste 0 -- -- 51
2020-07-28 09:00:00 26.3 7 Norte 15 Nordeste 0 -- -- 53
2020-07-28 08:00:00 24.9 4 Este 14 Este 0 -- -- 55
2020-07-28 07:00:00 24 5 Este 23 Nordeste 0 -- -- 57
2020-07-28 06:00:00 24.8 7 Este 13 Sudeste 0.2 -- -- 61
2020-07-28 05:00:00 26 8 Este 16 Sudeste 0 -- -- 59
2020-07-28 04:00:00 25.7 6 Este 22 Este 0 -- -- 52
2020-07-28 03:00:00 26.1 11 Este 33 Este 0 -- -- 50
2020-07-28 02:00:00 27.5 15 Este 25 Este 0 -- -- 46
2020-07-28 01:00:00 27.7 12 Nordeste 24 Este 0 -- -- 46
2020-07-28 00:00:00 28.7 12 Este 28 Sudeste 0 -- -- 46
2020-07-27 23:00:00 28.7 18 Este 31 Este 0 -- -- 48
2020-07-27 22:00:00 30 13 Este 29 Sudeste 0 -- -- 45
2020-07-27 21:00:00 30.6 18 Sudeste 38 Sudeste 0 -- -- 47
2020-07-27 20:00:00 32.5 22 Sudeste 39 Sur 0 -- -- 46
2020-07-27 19:00:00 34.6 22 Sudeste 36 Sur 0 -- -- 42
2020-07-27 18:00:00 35.6 24 Sudeste 35 Sudeste 0 -- -- 40
2020-07-27 17:00:00 37.2 13 Sudeste 27 Sudeste 0 -- -- 36
2020-07-27 16:00:00 37.6 10 Sudeste 19 Sudeste 0 -- -- 34
2020-07-27 15:00:00 37 11 Nordeste 22 Este 0 -- -- 36
2020-07-27 14:00:00 35.4 10 Este 22 Nordeste 0 -- -- 37
2020-07-27 13:00:00 33.6 12 Nordeste 22 Este 0 -- -- 43
2020-07-27 12:00:00 31.5 12 Nordeste 20 Nordeste 0 -- -- 49
2020-07-27 09:00:00 25.4 9 Nordeste 17 Nordeste 0 -- -- 70
2020-07-27 08:00:00 22.8 14 Nordeste 21 Este 0 -- -- 78
2020-07-27 07:00:00 22.2 9 Nordeste 18 Nordeste 0 -- -- 79
2020-07-27 06:00:00 22.5 12 Nordeste 21 Nordeste 0 -- -- 77
2020-07-27 05:00:00 22.9 10 Nordeste 19 Nordeste 0 -- -- 76
2020-07-27 04:00:00 23.2 12 Nordeste 20 Nordeste 0 -- -- 76
2020-07-27 03:00:00 24.1 11 Nordeste 19 Nordeste 0 -- -- 71
2020-07-27 02:00:00 25.7 10 Este 21 Este 0 -- -- 54
2020-07-27 01:00:00 26 10 Este 23 Sudeste 0 -- -- 53
2020-07-27 00:00:00 26.4 13 Sudeste 31 Sudeste 0 -- -- 56
2020-07-26 23:00:00 27.3 15 Sudeste 32 Sur 0 -- -- 59
2020-07-26 22:00:00 28.2 16 Sudeste 28 Sur 0 -- -- 61
2020-07-26 21:00:00 30.2 13 Sudeste 35 Sur 0 -- -- 56
2020-07-26 20:00:00 32 21 Sudeste 33 Sur 0 -- -- 52
2020-07-26 19:00:00 34.9 14 Sudeste 27 Sur 0 -- -- 45
2020-07-26 18:00:00 35.8 6 Norte 16 Nordeste 0 -- -- 37
2020-07-26 17:00:00 35.8 9 Nordeste 22 Nordeste 0 -- -- 39
2020-07-26 16:00:00 34.2 6 Norte 14 Norte 0 -- -- 42
2020-07-26 15:00:00 33.1 8 Noroeste 18 Sudoeste 0 -- -- 43
2020-07-26 14:00:00 31.4 6 Sudeste 15 Sur 0 -- -- 49
2020-07-26 13:00:00 29.8 6 Sudoeste 14 Oeste 0 -- -- 54
2020-07-26 12:00:00 28.2 6 Sudoeste 14 Sudoeste 0 -- -- 59
2020-07-26 11:00:00 26.3 4 Este 9 Este 0 -- -- 67
2020-07-26 10:00:00 24.2 4 Sur 10 Sudoeste 0 -- -- 67
2020-07-26 09:00:00 23.1 3 Sur 5 Sur 0 -- -- 68
2020-07-26 08:00:00 21.6 0 Calma 4 Noroeste 0 -- -- 73
2020-07-26 07:00:00 20.5 2 Norte 8 Norte 0 -- -- 75
2020-07-26 06:00:00 21.2 5 Norte 13 Noroeste 0 -- -- 72
2020-07-26 05:00:00 22.7 4 Sur 14 Este 0 -- -- 70
2020-07-26 04:00:00 23.4 8 Este 22 Nordeste 0 -- -- 67
2020-07-26 03:00:00 23.8 13 Este 21 Este 0 -- -- 64
2020-07-26 02:00:00 24.5 12 Nordeste 20 Nordeste 0 -- -- 63
2020-07-26 01:00:00 25.2 11 Este 23 Sudeste 0 -- -- 60
2020-07-26 00:00:00 26 13 Sudeste 31 Sudeste 0 -- -- 59
2020-07-25 23:00:00 27 19 Sudeste 29 Sudeste 0 -- -- 59
2020-07-25 22:00:00 28.1 12 Sudeste 31 Sudeste 0 -- -- 56
2020-07-25 21:00:00 30.1 17 Sudeste 33 Sudeste 0 -- -- 50
2020-07-25 20:00:00 32.1 18 Sudeste 30 Sudeste 0 -- -- 43
2020-07-25 19:00:00 35.4 8 Nordeste 25 Nordeste 0 -- -- 30
2020-07-25 18:00:00 35.3 6 Este 18 Nordeste 0 -- -- 30
2020-07-25 17:00:00 35.3 9 Nordeste 22 Sudeste 0 -- -- 29
2020-07-25 16:00:00 33.3 6 Sudeste 15 Sur 0 -- -- 31
2020-07-25 15:00:00 31.7 8 Sur 20 Sur 0 -- -- 32
2020-07-25 14:00:00 30.7 8 Este 19 Este 0 -- -- 33
2020-07-25 13:00:00 29.3 8 Este 16 Sudeste 0 -- -- 39
2020-07-25 12:00:00 27.8 7 Nordeste 14 Este 0 -- -- 43
2020-07-25 11:00:00 24.9 7 Sudoeste 14 Sudeste 0 -- -- 48
2020-07-25 10:00:00 23.5 4 Sur 9 Sur 0 -- -- 53
2020-07-25 09:00:00 21.2 3 Sudoeste 9 Sudoeste 0 -- -- 60
2020-07-25 08:00:00 20.1 5 Sudoeste 15 Oeste 0 -- -- 63
2020-07-25 07:00:00 19.7 6 Sudoeste 17 Sudoeste 0 -- -- 64
2020-07-25 06:00:00 20.6 9 Sudoeste 14 Oeste 0 -- -- 61
2020-07-25 05:00:00 21.9 6 Sudoeste 14 Sudoeste 0 -- -- 55
2020-07-25 04:00:00 23.3 4 Sudoeste 10 Oeste 0 -- -- 50
2020-07-25 03:00:00 24.2 7 Noroeste 11 Noroeste 0 -- -- 47
2020-07-25 02:00:00 25.1 2 Sudoeste 19 Oeste 0 -- -- 47
2020-07-25 01:00:00 26.6 11 Nordeste 18 Nordeste 0 -- -- 43
2020-07-25 00:00:00 27.3 10 Sudeste 20 Sur 0 -- -- 46
2020-07-24 23:00:00 28.4 12 Sudeste 27 Sudeste 0 -- -- 45
2020-07-24 22:00:00 29.8 17 Sudeste 29 Sudeste 0 -- -- 46
2020-07-24 21:00:00 32.3 10 Nordeste 15 Nordeste 0 -- -- 38
2020-07-24 20:00:00 34 6 Norte 15 Noroeste 0 -- -- 33
2020-07-24 19:00:00 35.2 4 Norte 18 Sudoeste 0 -- -- 27
2020-07-24 18:00:00 35 4 Nordeste 18 Noroeste 0 -- -- 30
2020-07-24 17:00:00 34.3 5 Noroeste 18 Noroeste 0 -- -- 33
2020-07-24 16:00:00 33.6 6 Oeste 16 Sudoeste 0 -- -- 33
2020-07-24 15:00:00 31.9 7 Sudeste 21 Oeste 0 -- -- 38
2020-07-24 14:00:00 30.5 4 Este 15 Oeste 0 -- -- 41
2020-07-24 13:00:00 29.9 6 Noroeste 14 Sur 0 -- -- 43
2020-07-24 12:00:00 27.8 5 Nordeste 19 Sudoeste 0 -- -- 48
2020-07-24 11:00:00 26.7 4 Noroeste 14 Oeste 0 -- -- 50
2020-07-24 10:00:00 24.6 6 Noroeste 10 Noroeste 0 -- -- 55
2020-07-24 09:00:00 23.1 3 Oeste 18 Noroeste 0 -- -- 64
2020-07-24 08:00:00 21.9 6 Noroeste 12 Noroeste 0 -- -- 72
2020-07-24 07:00:00 22.4 3 Norte 13 Sudeste 0 -- -- 68
2020-07-24 06:00:00 23.8 6 Sudeste 22 Nordeste 0 -- -- 63
2020-07-24 05:00:00 23.9 16 Nordeste 33 Noroeste 0 -- -- 62
2020-07-24 04:00:00 24.3 9 Sudeste 20 Sudeste 0 -- -- 58
2020-07-24 03:00:00 24.8 13 Este 38 Nordeste 0 -- -- 57
2020-07-24 02:00:00 26.1 10 Nordeste 22 Este 0 -- -- 53
2020-07-24 01:00:00 27.2 9 Este 27 Sudeste 0 -- -- 40
2020-07-24 00:00:00 28.5 8 Sudeste 22 Sudeste 0 -- -- 36
2020-07-23 23:00:00 29.5 13 Sudeste 26 Sudeste 0 -- -- 32
2020-07-23 22:00:00 30.5 17 Sudeste 31 Sudeste 0 -- -- 33
2020-07-23 21:00:00 32.4 16 Sudeste 29 Sudeste 0 -- -- 34
2020-07-23 20:00:00 36.2 11 Sudeste 22 Sur 0 -- -- 25
2020-07-23 19:00:00 37.2 5 Sur 14 Sudeste 0 -- -- 20
2020-07-23 18:00:00 37.2 7 Noroeste 16 Noroeste 0 -- -- 22
2020-07-23 17:00:00 37 9 Noroeste 16 Noroeste 0 -- -- 23
2020-07-23 16:00:00 36 8 Noroeste 17 Nordeste 0 -- -- 25
2020-07-23 15:00:00 35 7 Noroeste 15 Oeste 0 -- -- 29
2020-07-23 14:00:00 33.9 6 Sudoeste 14 Sudeste 0 -- -- 32
2020-07-23 13:00:00 31.9 5 Noroeste 14 Sudoeste 0 -- -- 35
2020-07-23 12:00:00 30 4 Sur 12 Noroeste 0 -- -- 41
2020-07-23 11:00:00 27.4 3 Oeste 9 Oeste 0 -- -- 48
2020-07-23 10:00:00 24.8 3 Sur 7 Oeste 0 -- -- 55
2020-07-23 09:00:00 21.5 0 Calma 5 Nordeste 0 -- -- 63
2020-07-23 08:00:00 18.9 3 Oeste 4 Sudoeste 0 -- -- 76
2020-07-23 07:00:00 18.2 2 Sudoeste 8 Oeste 0 -- -- 79
2020-07-23 06:00:00 19.6 2 Noroeste 6 Oeste 0 -- -- 72
2020-07-23 05:00:00 20.9 2 Oeste 6 Noroeste 0 -- -- 66
2020-07-23 04:00:00 21.6 0 Calma 6 Sudeste 0 -- -- 63
2020-07-23 03:00:00 22.4 0 Calma 6 Noroeste 0 -- -- 62
2020-07-23 02:00:00 24.1 2 Sudeste 21 Sudeste 0 -- -- 57
2020-07-23 01:00:00 25.4 12 Sudeste 24 Sudeste 0 -- -- 53
2020-07-23 00:00:00 26.3 8 Sudeste 23 Sudeste 0 -- -- 51
2020-07-22 23:00:00 27.5 10 Sudeste 24 Sudeste 0 -- -- 43
2020-07-22 22:00:00 28.8 11 Sudeste 26 Este 0 -- -- 45
2020-07-22 21:00:00 30.9 12 Sudeste 22 Sudeste 0 -- -- 34
2020-07-22 20:00:00 32.5 14 Sudeste 24 Sudeste 0 -- -- 30
2020-07-22 19:00:00 32.9 16 Sudeste 30 Sudeste 0 -- -- 30
2020-07-22 18:00:00 32.9 17 Sudeste 38 Sur 0 -- -- 29
2020-07-22 17:00:00 33.4 22 Sudeste 36 Sur 0 -- -- 20
2020-07-22 16:00:00 33.8 18 Sudeste 31 Sudeste 0 -- -- 21
2020-07-22 15:00:00 33.7 13 Sudeste 25 Sur 0 -- -- 31
2020-07-22 14:00:00 31.5 10 Sur 23 Sudeste 0 -- -- 38
2020-07-22 13:00:00 29.8 11 Sur 23 Nordeste 0 -- -- 43
2020-07-22 12:00:00 28.3 8 Este 16 Sur 0 -- -- 48
2020-07-22 11:00:00 25.8 5 Sudoeste 15 Sur 0 -- -- 56
2020-07-22 10:00:00 25.6 4 Este 24 Nordeste 0 -- -- 53
2020-07-22 09:00:00 22.9 16 Nordeste 25 Nordeste 0 -- -- 57
2020-07-22 08:00:00 21 3 Este 20 Sudoeste 0 -- -- 67
2020-07-22 07:00:00 21.4 8 Nordeste 19 Este 0 -- -- 69
2020-07-22 06:00:00 21.3 10 Este 17 Este 0 -- -- 74
2020-07-22 05:00:00 21.4 0 Calma 14 Este 0 -- -- 72
2020-07-22 04:00:00 21.9 5 Nordeste 8 Sudeste 0 -- -- 69
2020-07-22 03:00:00 22.9 8 Este 15 Este 0 -- -- 68
2020-07-22 02:00:00 23.8 6 Nordeste 15 Sudeste 0 -- -- 64
2020-07-22 01:00:00 24.6 6 Este 17 Sudeste 0 -- -- 64
2020-07-22 00:00:00 25.3 10 Sudeste 27 Sudeste 0 -- -- 63
2020-07-21 23:00:00 26.6 13 Sudeste 30 Sudeste 0 -- -- 57
2020-07-21 22:00:00 28 20 Sudeste 35 Sudeste 0 -- -- 47
2020-07-21 21:00:00 29.4 14 Sudeste 38 Sudeste 0 -- -- 39
2020-07-21 20:00:00 30.4 20 Sudeste 45 Sudeste 0 -- -- 37
2020-07-21 19:00:00 31.8 22 Sudeste 44 Sudeste 0 -- -- 34
2020-07-21 18:00:00 34 27 Sudeste 44 Sudeste 0 -- -- 28
2020-07-21 17:00:00 35.2 19 Sudeste 35 Sudeste 0 -- -- 30
2020-07-21 16:00:00 35.4 15 Sudeste 30 Sudeste 0 -- -- 30
2020-07-21 15:00:00 34.9 13 Sudeste 33 Sudeste 0 -- -- 32
2020-07-21 14:00:00 33.2 11 Este 22 Este 0 -- -- 38
2020-07-21 13:00:00 31.6 9 Este 22 Nordeste 0 -- -- 43
2020-07-21 12:00:00 29.9 7 Este 22 Este 0 -- -- 48
2020-07-21 11:00:00 27.9 9 Sudeste 18 Nordeste 0 -- -- 56
2020-07-21 10:00:00 26.7 10 Nordeste 16 Nordeste 0 -- -- 57
2020-07-21 09:00:00 24.3 7 Nordeste 12 Nordeste 0 -- -- 60
2020-07-21 08:00:00 21.5 4 Nordeste 8 Nordeste 0 -- -- 65
2020-07-21 07:00:00 20.4 2 Noroeste 22 Este 0 -- -- 69
2020-07-21 06:00:00 20.8 12 Nordeste 24 Nordeste 0 -- -- 69
2020-07-21 05:00:00 21.3 10 Nordeste 20 Este 0 -- -- 68
2020-07-21 04:00:00 22.1 10 Este 18 Sudeste 0 -- -- 67
2020-07-21 03:00:00 23.6 9 Este 19 Este 0 -- -- 65
2020-07-21 02:00:00 23.5 8 Este 17 Este 0 -- -- 62
2020-07-21 01:00:00 24.4 7 Este 26 Sudeste 0 -- -- 58
2020-07-21 00:00:00 24.9 10 Este 24 Sudeste 0 -- -- 53
2020-07-20 23:00:00 25.7 11 Sudeste 27 Sudeste 0 -- -- 51
2020-07-20 22:00:00 26.7 15 Sudeste 32 Sudeste 0 -- -- 47
2020-07-20 21:00:00 28.8 14 Sudeste 38 Sur 0 -- -- 38
2020-07-20 20:00:00 30.5 16 Sudeste 36 Sudeste 0 -- -- 38
2020-07-20 19:00:00 31.1 23 Sudeste 42 Sudeste 0 -- -- 41
2020-07-20 18:00:00 31.7 18 Sudeste 39 Sudeste 0 -- -- 43
2020-07-20 17:00:00 32.5 19 Sudeste 35 Sudeste 0 -- -- 48
2020-07-20 16:00:00 33.2 16 Este 33 Nordeste 0 -- -- 47
2020-07-20 15:00:00 32.7 18 Nordeste 27 Nordeste 0 -- -- 47
2020-07-20 14:00:00 31.7 15 Nordeste 28 Nordeste 0 -- -- 46
2020-07-20 13:00:00 29.3 19 Nordeste 26 Nordeste 0 -- -- 51
2020-07-20 12:00:00 27.3 22 Nordeste 28 Nordeste 0 -- -- 57
2020-07-20 11:00:00 24.2 15 Nordeste 22 Nordeste 0.2 -- -- 71
2020-07-20 10:00:00 25.2 16 Nordeste 22 Nordeste 0 -- -- 63
2020-07-20 09:00:00 24.2 10 Este 15 Nordeste 0 -- -- 66
2020-07-20 08:00:00 22.7 6 Nordeste 10 Este 0 -- -- 70
2020-07-20 07:00:00 22.1 7 Sudeste 17 Este 0 -- -- 71
2020-07-20 06:00:00 21 8 Este 19 Nordeste 0 -- -- 72
2020-07-20 05:00:00 21.4 18 Nordeste 28 Nordeste 0 -- -- 71
2020-07-20 04:00:00 21.8 16 Nordeste 27 Este 0 -- -- 72
2020-07-20 03:00:00 22.5 14 Nordeste 23 Nordeste 0 -- -- 70
2020-07-20 02:00:00 23.9 12 Este 22 Este 0 -- -- 63
2020-07-20 01:00:00 24.2 10 Sudeste 20 Sudeste 0 -- -- 63
2020-07-20 00:00:00 24.6 10 Este 26 Sudeste 0 -- -- 63
2020-07-19 23:00:00 25.4 19 Sudeste 33 Sudeste 0 -- -- 60
2020-07-19 22:00:00 26.4 23 Sudeste 37 Sudeste 0 -- -- 60
2020-07-19 21:00:00 27.9 21 Sudeste 41 Sudeste 0 -- -- 59
2020-07-19 20:00:00 29.8 20 Sudeste 37 Sudeste 0 -- -- 54
2020-07-19 19:00:00 31.6 21 Sudeste 33 Sudeste 0 -- -- 47
2020-07-19 18:00:00 33 16 Sudeste 34 Sur 0 -- -- 42
2020-07-19 17:00:00 33.4 19 Sudeste 35 Sur 0 -- -- 40
2020-07-19 16:00:00 34.1 15 Sudeste 32 Sudeste 0 -- -- 38
2020-07-19 15:00:00 34.6 7 Este 19 Sur 0 -- -- 35
2020-07-19 14:00:00 33 7 Este 21 Nordeste 0 -- -- 40
2020-07-19 13:00:00 31 5 Oeste 14 Este 0 -- -- 43
2020-07-19 12:00:00 30 6 Nordeste 17 Nordeste 0 -- -- 49
2020-07-19 11:00:00 27.8 8 Este 17 Nordeste 0 -- -- 57
2020-07-19 10:00:00 26.2 9 Nordeste 16 Nordeste 0 -- -- 64
2020-07-19 09:00:00 23.8 12 Nordeste 19 Nordeste 0 -- -- 73
2020-07-19 08:00:00 21.5 10 Nordeste 19 Nordeste 0 -- -- 79
2020-07-19 07:00:00 20.6 11 Nordeste 21 Este 0 -- -- 83
2020-07-19 06:00:00 20.8 9 Nordeste 20 Este 0 -- -- 82
2020-07-19 05:00:00 21.2 14 Nordeste 22 Nordeste 0 -- -- 80
2020-07-19 04:00:00 21.6 13 Nordeste 20 Este 0 -- -- 78
2020-07-19 03:00:00 22.5 11 Este 21 Este 0 -- -- 75
2020-07-19 02:00:00 23.6 9 Este 21 Sudeste 0 -- -- 73
2020-07-19 01:00:00 24.4 14 Sudeste 28 Sudeste 0 -- -- 70
2020-07-19 00:00:00 25.2 18 Sudeste 32 Sudeste 0 -- -- 68
2020-07-18 23:00:00 26.4 17 Sudeste 26 Sudeste 0 -- -- 65
2020-07-18 22:00:00 28.1 11 Sudeste 27 Sudeste 0 -- -- 56
2020-07-18 21:00:00 31.2 8 Este 18 Este 0 -- -- 35
2020-07-18 20:00:00 33 11 Este 18 Este 0 -- -- 32
2020-07-18 19:00:00 33.9 10 Nordeste 19 Nordeste 0 -- -- 31
2020-07-18 18:00:00 33.5 10 Este 21 Oeste 0 -- -- 31
2020-07-18 17:00:00 33.8 7 Oeste 16 Sudoeste 0 -- -- 29
2020-07-18 16:00:00 32.6 6 Oeste 14 Oeste 0 -- -- 33
2020-07-18 15:00:00 31.6 9 Noroeste 20 Oeste 0 -- -- 33
2020-07-18 14:00:00 30.2 12 Oeste 20 Oeste 0 -- -- 35
2020-07-18 13:00:00 27.8 7 Oeste 17 Sudoeste 0 -- -- 43
2020-07-18 12:00:00 25.9 7 Sudoeste 17 Sudoeste 0 -- -- 46
2020-07-18 11:00:00 23.6 8 Sur 14 Sur 0 -- -- 53
2020-07-18 10:00:00 21.9 5 Sur 12 Sur 0 -- -- 58
2020-07-18 09:00:00 20.5 8 Oeste 13 Oeste 0 -- -- 62
2020-07-18 08:00:00 18.5 5 Sur 8 Sur 0 -- -- 68
2020-07-18 07:00:00 17.9 0 Calma 14 Sudoeste 0 -- -- 70
2020-07-18 06:00:00 18.5 5 Sudoeste 15 Sudoeste 0 -- -- 68
2020-07-18 05:00:00 19.1 6 Sudoeste 14 Sur 0 -- -- 67
2020-07-18 04:00:00 19.6 6 Sur 14 Sur 0 -- -- 65
2020-07-18 03:00:00 20.3 8 Sur 13 Sur 0 -- -- 62
2020-07-18 02:00:00 21.6 7 Sudoeste 16 Sudoeste 0 -- -- 58
2020-07-18 01:00:00 22.7 7 Sudoeste 19 Sudoeste 0 -- -- 53
2020-07-18 00:00:00 23.7 12 Sudoeste 21 Sudoeste 0 -- -- 48
2020-07-17 23:00:00 25.5 8 Noroeste 23 Oeste 0 -- -- 42
2020-07-17 22:00:00 27.7 6 Sudoeste 24 Sudoeste 0 -- -- 36
2020-07-17 21:00:00 30.2 9 Oeste 27 Oeste 0 -- -- 32
2020-07-17 20:00:00 32 15 Oeste 27 Oeste 0 -- -- 32
2020-07-17 19:00:00 32.2 10 Noroeste 18 Oeste 0 -- -- 33
2020-07-17 18:00:00 31.6 7 Sudoeste 18 Noroeste 0 -- -- 37
2020-07-17 17:00:00 31.6 6 Norte 23 Oeste 0 -- -- 37
2020-07-17 16:00:00 31 9 Noroeste 19 Oeste 0 -- -- 37
2020-07-17 15:00:00 29.9 9 Oeste 19 Oeste 0 -- -- 38
2020-07-17 14:00:00 28.1 8 Norte 15 Noroeste 0 -- -- 42
2020-07-17 13:00:00 26.4 9 Oeste 16 Oeste 0 -- -- 44
2020-07-17 12:00:00 24.4 7 Oeste 16 Sur 0 -- -- 50
2020-07-17 11:00:00 22.2 8 Sudoeste 17 Sudoeste 0 -- -- 55
2020-07-17 10:00:00 20.8 5 Sur 17 Oeste 0 -- -- 59
2020-07-17 09:00:00 19.3 8 Oeste 16 Oeste 0 -- -- 65
2020-07-17 08:00:00 17.5 5 Sudoeste 11 Sudoeste 0 -- -- 70
2020-07-17 07:00:00 16.9 4 Sudoeste 13 Sudoeste 0 -- -- 70
2020-07-17 06:00:00 17.4 4 Oeste 10 Sudoeste 0 -- -- 68
2020-07-17 05:00:00 18.1 4 Sudoeste 12 Sur 0 -- -- 66
2020-07-17 04:00:00 18.9 5 Sur 15 Sudoeste 0 -- -- 64
2020-07-17 03:00:00 20.2 6 Sudoeste 19 Sudoeste 0 -- -- 61
2020-07-17 02:00:00 21.2 6 Sur 20 Sudoeste 0 -- -- 58
2020-07-17 01:00:00 23.5 10 Sudoeste 22 Sudoeste 0 -- -- 53
2020-07-17 00:00:00 25.7 7 Sur 23 Sur 0 -- -- 45
2020-07-16 23:00:00 26.8 10 Sur 22 Sur 0 -- -- 44
2020-07-16 22:00:00 28.4 7 Sudeste 12 Sudeste 0 -- -- 39
2020-07-16 21:00:00 29.4 8 Este 17 Este 0 -- -- 39
2020-07-16 20:00:00 31.4 12 Nordeste 18 Este 0 -- -- 35
2020-07-16 19:00:00 31.6 3 Este 18 Nordeste 0 -- -- 34
2020-07-16 18:00:00 31.7 6 Este 34 Nordeste 0 -- -- 34
2020-07-16 17:00:00 31.6 6 Sudoeste 21 Oeste 0 -- -- 32
2020-07-16 16:00:00 30 5 Norte 20 Oeste 0 -- -- 35
2020-07-16 15:00:00 28.6 12 Sudeste 20 Sur 0 -- -- 38
2020-07-16 14:00:00 27.8 11 Oeste 21 Oeste 0 -- -- 38
2020-07-16 13:00:00 25.8 7 Sur 21 Sur 0 -- -- 42
2020-07-16 12:00:00 24.3 6 Sur 18 Sur 0 -- -- 46
2020-07-16 11:00:00 22.8 7 Sudoeste 17 Sudoeste 0 -- -- 47
2020-07-16 10:00:00 21 6 Noroeste 13 Oeste 0 -- -- 53
2020-07-16 09:00:00 19.7 3 Norte 13 Sudoeste 0 -- -- 57
2020-07-16 08:00:00 17.6 4 Sudoeste 10 Sudoeste 0 -- -- 63
2020-07-16 07:00:00 16.6 6 Sudoeste 9 Sudoeste 0 -- -- 65
2020-07-16 06:00:00 16.9 6 Sur 15 Sudoeste 0 -- -- 63
2020-07-16 05:00:00 17.9 8 Sudoeste 18 Oeste 0 -- -- 58
2020-07-16 04:00:00 18.5 7 Sudoeste 17 Sudoeste 0 -- -- 54
2020-07-16 03:00:00 19.2 4 Sudoeste 20 Sur 0 -- -- 53
2020-07-16 02:00:00 19.9 10 Sur 20 Sur 0 -- -- 51
2020-07-16 01:00:00 20.7 8 Sudoeste 23 Sur 0 -- -- 50
2020-07-16 00:00:00 21.9 14 Sudoeste 22 Sudoeste 0 -- -- 48
2020-07-15 23:00:00 23.9 13 Oeste 26 Oeste 0 -- -- 42
2020-07-15 22:00:00 25.3 13 Oeste 28 Oeste 0 -- -- 39
2020-07-15 21:00:00 27.2 14 Oeste 31 Oeste 0 -- -- 39
2020-07-15 20:00:00 28.6 24 Oeste 42 Oeste 0 -- -- 36
2020-07-15 19:00:00 30.1 23 Oeste 46 Oeste 0 -- -- 33
2020-07-15 18:00:00 30.7 18 Noroeste 30 Noroeste 0 -- -- 32
2020-07-15 17:00:00 30.2 7 Oeste 21 Nordeste 0 -- -- 35
2020-07-15 16:00:00 29.6 4 Sur 19 Oeste 0 -- -- 34
2020-07-15 15:00:00 29.1 10 Noroeste 23 Noroeste 0 -- -- 36
2020-07-15 14:00:00 27.1 7 Noroeste 21 Noroeste 0 -- -- 39
2020-07-15 13:00:00 25.7 5 Sur 29 Sur 0 -- -- 42
2020-07-15 12:00:00 24.4 16 Oeste 32 Oeste 0 -- -- 42
2020-07-15 11:00:00 22.6 8 Sudoeste 25 Sudoeste 0 -- -- 46
2020-07-15 10:00:00 20.4 8 Sudoeste 17 Oeste 0 -- -- 52
2020-07-15 09:00:00 18.3 6 Sudoeste 17 Sudoeste 0 -- -- 58
2020-07-15 08:00:00 17.1 9 Sudoeste 18 Oeste 0 -- -- 62
2020-07-15 07:00:00 16.8 7 Sudoeste 16 Sur 0 -- -- 60
2020-07-15 06:00:00 16.8 5 Sudoeste 13 Sudoeste 0 -- -- 57
2020-07-15 05:00:00 17.4 9 Sudoeste 20 Sudoeste 0 -- -- 53
2020-07-15 04:00:00 18.3 10 Sudoeste 14 Sudoeste 0 -- -- 59
2020-07-15 03:00:00 20.3 8 Sur 14 Sur 0 -- -- 50
2020-07-15 02:00:00 22.2 8 Este 18 Sudeste 0 -- -- 64
2020-07-15 01:00:00 23 12 Sudeste 24 Sudeste 0 -- -- 62
2020-07-15 00:00:00 23.8 9 Este 15 Sudeste 0 -- -- 50
2020-07-14 23:00:00 24.6 12 Este 21 Nordeste 0 -- -- 45
2020-07-14 22:00:00 25.9 8 Sudeste 23 Sudeste 0 -- -- 41
2020-07-14 21:00:00 28 11 Sudeste 20 Sudeste 0 -- -- 36
2020-07-14 20:00:00 29.8 9 Nordeste 15 Nordeste 0 -- -- 41
2020-07-14 19:00:00 30.4 6 Oeste 14 Noroeste 0 -- -- 38
2020-07-14 18:00:00 30.3 5 Noroeste 14 Este 0 -- -- 38
2020-07-14 17:00:00 29.5 5 Sur 17 Oeste 0 -- -- 39
2020-07-14 16:00:00 29 6 Sudoeste 25 Sudeste 0 -- -- 40
2020-07-14 15:00:00 28.3 6 Noroeste 17 Oeste 0 -- -- 41
2020-07-14 14:00:00 27.3 8 Sudoeste 17 Nordeste 0 -- -- 42
2020-07-14 13:00:00 25.9 6 Oeste 22 Oeste 0 -- -- 43
2020-07-14 12:00:00 24.8 8 Oeste 21 Oeste 0 -- -- 44
2020-07-14 11:00:00 22.9 7 Oeste 15 Oeste 0 -- -- 47
2020-07-14 10:00:00 21 7 Sudoeste 14 Sur 0 -- -- 51
2020-07-14 09:00:00 19.2 3 Sudoeste 10 Sudoeste 0 -- -- 53
2020-07-14 08:00:00 17.8 8 Sur 11 Sur 0 -- -- 57
2020-07-14 07:00:00 17.4 8 Sudoeste 15 Sudoeste 0 -- -- 57
2020-07-14 06:00:00 17.9 8 Sudoeste 15 Sudoeste 0 -- -- 55
2020-07-14 05:00:00 18.5 7 Sudoeste 23 Sudoeste 0 -- -- 55
2020-07-14 04:00:00 19.1 8 Sudoeste 26 Oeste 0 -- -- 54
2020-07-14 03:00:00 20 6 Sudoeste 14 Sur 0 -- -- 70
2020-07-14 02:00:00 21.2 7 Sur 16 Este 0 -- -- 65
2020-07-14 01:00:00 22.1 12 Este 18 Este 0 -- -- 72
2020-07-14 00:00:00 22.6 12 Este 19 Este 0 -- -- 71
2020-07-13 23:00:00 23.8 10 Este 21 Este 0 -- -- 68
2020-07-13 22:00:00 24.1 15 Este 31 Nordeste 0 -- -- 67
2020-07-13 21:00:00 27.5 14 Este 36 Sudeste 0 -- -- 51
2020-07-13 20:00:00 29.1 17 Sudeste 38 Sudeste 0 -- -- 52
2020-07-13 19:00:00 34.2 10 Sudoeste 30 Oeste 0 -- -- 40
2020-07-13 18:00:00 34.2 10 Oeste 21 Oeste 0 -- -- 36
2020-07-13 17:00:00 33.8 11 Oeste 23 Oeste 0 -- -- 37
2020-07-13 16:00:00 32.3 11 Sur 22 Sur 0 -- -- 41
2020-07-13 15:00:00 31.3 9 Sudoeste 19 Sudoeste 0 -- -- 45
2020-07-13 14:00:00 31.4 8 Nordeste 21 Sudeste 0 -- -- 47
2020-07-13 13:00:00 29.2 5 Sudoeste 18 Sudoeste 0 -- -- 54
2020-07-13 12:00:00 28 6 Sudoeste 17 Sudoeste 0 -- -- 57
2020-07-13 11:00:00 26.3 7 Oeste 21 Oeste 0 -- -- 64
2020-07-13 10:00:00 25.2 11 Oeste 19 Oeste 0 -- -- 68
2020-07-13 09:00:00 22.7 4 Sur 8 Sudeste 0 -- -- 80
2020-07-13 08:00:00 20.8 0 Calma 5 Noroeste 0 -- -- 86
2020-07-13 07:00:00 20.2 2 Noroeste 8 Noroeste 0 -- -- 88
2020-07-13 06:00:00 20.3 4 Noroeste 7 Noroeste 0 -- -- 89
2020-07-13 05:00:00 21.1 3 Noroeste 6 Sudoeste 0 -- -- 85
2020-07-13 04:00:00 21.7 4 Norte 8 Oeste 0 -- -- 83
2020-07-13 03:00:00 22.6 3 Nordeste 11 Este 0 -- -- 79
2020-07-13 02:00:00 23.1 7 Este 14 Sudeste 0 -- -- 78
2020-07-13 01:00:00 23.7 10 Sudeste 27 Sudeste 0 -- -- 76
2020-07-13 00:00:00 23.9 12 Sudeste 23 Sudeste 0 -- -- 76
2020-07-12 23:00:00 24.5 12 Sudeste 26 Sudeste 0 -- -- 73
2020-07-12 22:00:00 24.7 11 Sudeste 23 Sudeste 0 -- -- 71
2020-07-12 21:00:00 25.3 7 Este 17 Sudeste 0 -- -- 62
2020-07-12 20:00:00 25.6 4 Sudoeste 24 Sur 0 -- -- 66
2020-07-12 19:00:00 27 14 Sudeste 27 Sudeste 0 -- -- 67
2020-07-12 18:00:00 29.6 16 Sudoeste 31 Sudoeste 0 -- -- 50
2020-07-12 17:00:00 30.4 5 Sur 22 Sudeste 0 -- -- 43
2020-07-12 16:00:00 31.2 9 Este 22 Norte 0 -- -- 44
2020-07-12 15:00:00 29.1 12 Nordeste 30 Nordeste 0 -- -- 51
2020-07-12 14:00:00 29.6 13 Noroeste 26 Noroeste 0 -- -- 47
2020-07-12 13:00:00 28 6 Sur 23 Sudeste 0 -- -- 52
2020-07-12 12:00:00 28.8 10 Sudeste 28 Sudeste 0 -- -- 49
2020-07-12 11:00:00 27 12 Este 21 Este 0 -- -- 55
2020-07-12 10:00:00 25.5 8 Este 15 Este 0 -- -- 59
2020-07-12 09:00:00 24.7 8 Nordeste 18 Nordeste 0 -- -- 63
2020-07-12 08:00:00 22.4 4 Nordeste 8 Nordeste 0 -- -- 70
2020-07-12 07:00:00 20.6 3 Oeste 14 Sudeste 0 -- -- 78
2020-07-12 06:00:00 21.2 10 Este 19 Nordeste 0 -- -- 75
2020-07-12 05:00:00 21.1 12 Nordeste 18 Nordeste 0 -- -- 77
2020-07-12 04:00:00 22.3 9 Este 21 Sudeste 0 -- -- 68
2020-07-12 03:00:00 22.7 10 Este 21 Sudeste 0 -- -- 70
2020-07-12 02:00:00 22.9 8 Este 21 Sudeste 0 -- -- 69
2020-07-12 01:00:00 23.5 13 Sudeste 32 Sudeste 0 -- -- 68
2020-07-12 00:00:00 24 20 Sudeste 36 Sudeste 0 -- -- 66
2020-07-11 23:00:00 24.9 20 Sudeste 36 Sudeste 0 -- -- 60
2020-07-11 22:00:00 26 18 Sudeste 32 Sudeste 0 -- -- 59
2020-07-11 21:00:00 28.1 17 Sudeste 36 Sudeste 0 -- -- 54
2020-07-11 20:00:00 30.3 19 Sudeste 38 Sudeste 0 -- -- 47
2020-07-11 19:00:00 32.8 15 Sudeste 28 Sudeste 0 -- -- 40
2020-07-11 18:00:00 33.4 7 Sudeste 17 Sur 0 -- -- 35
2020-07-11 17:00:00 32.8 7 Sudeste 16 Sudeste 0 -- -- 37
2020-07-11 16:00:00 31.4 11 Sudeste 18 Sudeste 0 -- -- 40
2020-07-11 15:00:00 31.1 10 Sur 17 Oeste 0 -- -- 41
2020-07-11 14:00:00 29.6 4 Sudoeste 24 Oeste 0 -- -- 44
2020-07-11 13:00:00 28.4 8 Oeste 18 Sudoeste 0 -- -- 46
2020-07-11 12:00:00 26.6 6 Sudoeste 17 Oeste 0 -- -- 50
2020-07-11 11:00:00 24.6 7 Sur 14 Sudoeste 0 -- -- 55
2020-07-11 10:00:00 23.1 4 Sudoeste 13 Sudoeste 0 -- -- 59
2020-07-11 09:00:00 21.5 5 Oeste 12 Oeste 0 -- -- 64
2020-07-11 08:00:00 19.6 8 Sur 14 Sur 0 -- -- 70
2020-07-11 07:00:00 19.2 7 Sudoeste 15 Sudoeste 0 -- -- 71
2020-07-11 06:00:00 19.5 5 Sudoeste 15 Sudoeste 0 -- -- 69
2020-07-11 05:00:00 20.4 7 Sudoeste 18 Sudoeste 0 -- -- 66
2020-07-11 04:00:00 21.1 3 Oeste 10 Sudoeste 0 -- -- 68
2020-07-11 03:00:00 22.1 5 Sudoeste 18 Sudoeste 0 -- -- 63
2020-07-11 02:00:00 23.9 8 Sudoeste 15 Sudoeste 0 -- -- 58
2020-07-11 01:00:00 24.7 3 Sur 17 Este 0 -- -- 52
2020-07-11 00:00:00 26.1 12 Este 17 Este 0 -- -- 45
2020-07-10 23:00:00 27.4 9 Este 19 Sudeste 0 -- -- 44
2020-07-10 22:00:00 28.3 12 Sudeste 21 Sudeste 0 -- -- 42
2020-07-10 21:00:00 30.3 10 Sudeste 24 Sudeste 0 -- -- 34
2020-07-10 20:00:00 32.1 10 Sudeste 27 Sur 0 -- -- 29
2020-07-10 19:00:00 32.8 14 Sudeste 28 Sudeste 0 -- -- 27
2020-07-10 18:00:00 33.4 13 Sur 33 Sur 0 -- -- 25
2020-07-10 17:00:00 33.1 19 Sudeste 33 Sudeste 0 -- -- 28
2020-07-10 16:00:00 33.7 21 Sur 36 Sudeste 0 -- -- 30
2020-07-10 15:00:00 32.9 11 Sur 24 Sur 0 -- -- 35
2020-07-10 14:00:00 31.6 11 Sudeste 20 Sur 0 -- -- 39
2020-07-10 13:00:00 30.6 6 Este 17 Sur 0 -- -- 47
2020-07-10 12:00:00 28.2 6 Sudoeste 17 Sur 0 -- -- 52
2020-07-10 11:00:00 27.2 4 Oeste 10 Nordeste 0 -- -- 55
2020-07-10 10:00:00 24.8 5 Noroeste 9 Noroeste 0 -- -- 62
2020-07-10 09:00:00 22.7 3 Sur 7 Sudoeste 0 -- -- 71
2020-07-10 08:00:00 21.3 0 Calma 4 Sudeste 0 -- -- 78
2020-07-10 07:00:00 20.8 0 Calma 8 Oeste 0 -- -- 79
2020-07-10 06:00:00 21.4 3 Nordeste 7 Norte 0 -- -- 76
2020-07-10 05:00:00 22.7 0 Calma 10 Este 0 -- -- 69
2020-07-10 04:00:00 23.8 6 Sudeste 14 Sudeste 0 -- -- 62
2020-07-10 03:00:00 24.7 8 Este 18 Este 0 -- -- 57
2020-07-10 02:00:00 25.8 9 Este 14 Este 0 -- -- 51
2020-07-10 01:00:00 26.6 3 Este 23 Sudeste 0 -- -- 49
2020-07-10 00:00:00 27 16 Sur 26 Sudeste 0 -- -- 46
2020-07-09 23:00:00 27.7 17 Sudeste 31 Sudeste 0 -- -- 47
2020-07-09 22:00:00 28.7 15 Sudeste 26 Sudeste 0 -- -- 53
2020-07-09 21:00:00 30.2 15 Sur 24 Sudeste 0 -- -- 53
2020-07-09 20:00:00 32 17 Sudeste 32 Sudeste 0 -- -- 49
2020-07-09 19:00:00 34 16 Sur 27 Sur 0 -- -- 43
2020-07-09 18:00:00 35.3 5 Este 14 Sur 0 -- -- 37
2020-07-09 17:00:00 34.2 6 Sur 15 Sudoeste 0 -- -- 41
2020-07-09 16:00:00 33.2 10 Sur 19 Sudoeste 0 -- -- 44
2020-07-09 15:00:00 31.6 12 Norte 19 Norte 0 -- -- 48
2020-07-09 14:00:00 31.8 5 Noroeste 15 Nordeste 0 -- -- 47
2020-07-09 13:00:00 30.4 5 Sudoeste 18 Este 0 -- -- 50
2020-07-09 12:00:00 28.6 9 Este 20 Este 0 -- -- 54
2020-07-09 11:00:00 28.6 12 Nordeste 21 Nordeste 0 -- -- 56
2020-07-09 10:00:00 25.7 4 Nordeste 18 Nordeste 0 -- -- 68
2020-07-09 09:00:00 24.8 9 Este 15 Este 0 -- -- 72
2020-07-09 08:00:00 23.4 5 Nordeste 12 Nordeste 0 -- -- 78
2020-07-09 07:00:00 22.4 5 Este 13 Sur 0 -- -- 80
2020-07-09 06:00:00 22.9 7 Sur 21 Sur 0 -- -- 78
2020-07-09 05:00:00 23.2 10 Sudeste 24 Sudeste 0 -- -- 76
2020-07-09 04:00:00 23.3 12 Sudeste 21 Este 0 -- -- 77
2020-07-09 03:00:00 23.8 10 Sur 18 Sur 0 -- -- 78
2020-07-09 02:00:00 23.9 14 Sudeste 23 Sudeste 0 -- -- 76
2020-07-09 01:00:00 24.4 10 Este 22 Este 0 -- -- 72
2020-07-09 00:00:00 25.2 14 Este 29 Este 0 -- -- 69
2020-07-08 23:00:00 25.4 13 Este 21 Este 0 -- -- 71
2020-07-08 22:00:00 25.6 9 Este 21 Sudeste 0 -- -- 71
2020-07-08 21:00:00 26.3 13 Sudeste 40 Sudeste 0 -- -- 68
2020-07-08 20:00:00 27.8 23 Sur 39 Sur 0 -- -- 64
2020-07-08 19:00:00 30 20 Sur 35 Sudeste 0 -- -- 56
2020-07-08 18:00:00 31.3 20 Sudeste 33 Sudeste 0 -- -- 52
2020-07-08 17:00:00 32.8 14 Sudeste 26 Sur 0 -- -- 48
2020-07-08 16:00:00 33.3 12 Este 27 Este 0 -- -- 40
2020-07-08 15:00:00 32.7 14 Este 26 Nordeste 0 -- -- 39
2020-07-08 14:00:00 31 9 Este 21 Nordeste 0 -- -- 44
2020-07-08 13:00:00 29.9 10 Sur 23 Oeste 0 -- -- 48
2020-07-08 12:00:00 27.6 9 Sur 17 Sur 0 -- -- 57
2020-07-08 11:00:00 26 6 Sudoeste 14 Sudoeste 0 -- -- 62
2020-07-08 10:00:00 24.6 5 Sudeste 11 Este 0 -- -- 67
2020-07-08 09:00:00 22 2 Oeste 5 Oeste 0 -- -- 72
2020-07-08 08:00:00 20.1 0 Calma 4 Nordeste 0 -- -- 78
2020-07-08 07:00:00 19.4 6 Nordeste 11 Este 0 -- -- 80
2020-07-08 06:00:00 19.5 4 Nordeste 9 Este 0 -- -- 79
2020-07-08 05:00:00 -- 3 Oeste 18 Nordeste -- -- -- --
2020-07-08 04:00:00 20.8 10 Este 22 Nordeste 0 -- -- 71
2020-07-08 03:00:00 21.5 16 Nordeste 21 Este 0 -- -- 66
2020-07-08 02:00:00 23.2 9 Este 24 Sudeste 0 -- -- 55
2020-07-08 01:00:00 24.1 15 Sudeste 28 Sudeste 0 -- -- 52
2020-07-08 00:00:00 25.1 16 Sudeste 30 Sudeste 0 -- -- 49
2020-07-07 23:00:00 26 15 Sudeste 32 Sudeste 0 -- -- 53
2020-07-07 22:00:00 27.8 13 Sudeste 22 Sur 0 -- -- 47
2020-07-07 21:00:00 29.8 9 Nordeste 19 Nordeste 0 -- -- 37
2020-07-07 20:00:00 31.3 12 Nordeste 18 Nordeste 0 -- -- 34
2020-07-07 19:00:00 31.6 6 Este 15 Nordeste 0 -- -- 33
2020-07-07 18:00:00 31.6 9 Nordeste 19 Nordeste 0 -- -- 33
2020-07-07 17:00:00 30.8 9 Sudeste 17 Nordeste 0 -- -- 36
2020-07-07 16:00:00 29.5 5 Oeste 17 Noroeste 0 -- -- 36
2020-07-07 15:00:00 28.3 5 Oeste 16 Noroeste 0 -- -- 39
2020-07-07 14:00:00 26.3 4 Sur 20 Noroeste 0 -- -- 41
2020-07-07 13:00:00 25 6 Sudoeste 17 Sudoeste 0 -- -- 42
2020-07-07 12:00:00 23.2 9 Sudoeste 21 Sudoeste 0 -- -- 44
2020-07-07 11:00:00 21.6 6 Oeste 21 Oeste 0 -- -- 48
2020-07-07 10:00:00 20.1 10 Oeste 18 Oeste 0 -- -- 51
2020-07-07 09:00:00 17.9 8 Sudoeste 15 Sudoeste 0 -- -- 56
2020-07-07 08:00:00 16.3 4 Sudoeste 12 Oeste 0 -- -- 60
2020-07-07 07:00:00 15.4 7 Sur 17 Sudoeste 0 -- -- 62
2020-07-07 06:00:00 15.5 7 Sudoeste 10 Oeste 0 -- -- 62
2020-07-07 05:00:00 16 4 Sudoeste 15 Sudoeste 0 -- -- 60
2020-07-07 04:00:00 17.3 7 Sudoeste 15 Sudoeste 0 -- -- 56
2020-07-07 03:00:00 18.3 11 Sudoeste 22 Sudoeste 0 -- -- 53
2020-07-07 02:00:00 19.3 10 Sudoeste 28 Sudoeste 0 -- -- 52
2020-07-07 01:00:00 20.2 14 Sudoeste 26 Sudoeste 0 -- -- 52
2020-07-07 00:00:00 21.5 12 Sudoeste 32 Sudoeste 0 -- -- 55